createdAt,value
2022-08-16T00:00:03.309Z,53.44
2022-08-16T00:02:32.269Z,53.52
2022-08-16T00:05:00.234Z,53.47
2022-08-16T00:07:30.210Z,53.54
2022-08-16T00:09:59.437Z,53.16
2022-08-16T00:12:30.150Z,53.53
2022-08-16T00:15:00.041Z,53.98
2022-08-16T00:17:28.258Z,54.68
2022-08-16T00:19:56.313Z,54.82
2022-08-16T00:22:25.374Z,55.09
2022-08-16T00:24:54.698Z,55.01
2022-08-16T00:27:23.466Z,54.68
2022-08-16T00:30:08.278Z,54.71
2022-08-16T00:32:41.677Z,54.13
2022-08-16T00:35:16.031Z,54.16
2022-08-16T00:37:57.274Z,54.00
2022-08-16T00:40:43.551Z,54.25
2022-08-16T00:43:19.350Z,54.19
2022-08-16T00:45:58.069Z,54.26
2022-08-16T00:48:30.950Z,54.22
2022-08-16T00:51:03.934Z,54.36
2022-08-16T00:53:33.317Z,54.51
2022-08-16T00:56:05.709Z,54.77
2022-08-16T00:58:35.534Z,55.18
2022-08-16T01:01:08.496Z,55.21
2022-08-16T01:03:41.585Z,55.46
2022-08-16T01:06:32.525Z,55.25
2022-08-16T01:09:01.709Z,55.53
2022-08-16T01:11:31.457Z,55.41
2022-08-16T01:14:29.859Z,55.78
2022-08-16T01:17:00.206Z,55.78
2022-08-16T01:19:40.846Z,55.91
2022-08-16T01:22:48.592Z,55.79
2022-08-16T01:25:19.002Z,55.88
2022-08-16T01:27:53.259Z,55.83
2022-08-16T01:30:34.615Z,55.92
2022-08-16T01:33:14.378Z,55.44
2022-08-16T01:36:02.031Z,55.46
2022-08-16T01:38:46.952Z,57.08
2022-08-16T01:41:25.918Z,64.55
2022-08-16T01:44:00.877Z,65.76
2022-08-16T01:46:40.823Z,67.41
2022-08-16T01:49:43.086Z,69.35
2022-08-16T01:52:29.830Z,71.05
2022-08-16T01:55:17.736Z,71.73
2022-08-16T01:57:53.461Z,72.08
2022-08-16T02:00:29.354Z,72.44
2022-08-16T02:02:59.610Z,72.66
2022-08-16T02:05:30.559Z,73.80
2022-08-16T02:08:00.980Z,74.11
2022-08-16T02:10:29.341Z,74.81
2022-08-16T02:13:00.692Z,75.07
2022-08-16T02:15:40.287Z,75.18
2022-08-16T02:18:12.830Z,76.04
2022-08-16T02:20:45.561Z,76.27
2022-08-16T02:23:17.213Z,76.92
2022-08-16T02:25:51.845Z,77.80
2022-08-16T02:28:23.625Z,78.57
2022-08-16T02:30:53.013Z,80.23
2022-08-16T02:33:44.679Z,80.62
2022-08-16T02:36:36.636Z,81.40
2022-08-16T02:39:09.886Z,81.57
2022-08-16T02:41:39.540Z,81.87
2022-08-16T02:44:13.674Z,82.08
2022-08-16T02:46:50.684Z,81.36
2022-08-16T02:49:22.061Z,81.45
2022-08-16T02:51:59.695Z,81.42
2022-08-16T02:54:29.259Z,81.70
2022-08-16T02:56:56.942Z,81.92
2022-08-16T02:59:24.442Z,82.49
2022-08-16T03:01:51.919Z,82.15
2022-08-16T03:04:50.241Z,82.90
2022-08-16T03:07:16.140Z,82.63
2022-08-16T03:09:55.379Z,82.73
2022-08-16T03:12:30.103Z,82.71
2022-08-16T03:14:59.380Z,82.39
2022-08-16T03:17:32.273Z,83.04
2022-08-16T03:20:04.742Z,82.17
2022-08-16T03:22:36.598Z,82.38
2022-08-16T03:25:11.785Z,81.52
2022-08-16T03:27:42.911Z,80.52
2022-08-16T03:30:20.311Z,80.04
2022-08-16T03:32:52.412Z,79.45
2022-08-16T03:35:33.041Z,79.20
2022-08-16T03:38:33.638Z,78.48
2022-08-16T03:41:17.210Z,78.49
2022-08-16T03:43:57.103Z,78.25
2022-08-16T03:46:47.882Z,78.01
2022-08-16T03:49:35.781Z,77.32
2022-08-16T03:52:05.994Z,77.63
2022-08-16T03:54:36.020Z,77.28
2022-08-16T03:57:05.104Z,76.97
2022-08-16T03:59:34.150Z,76.99
2022-08-16T04:02:22.556Z,76.80
2022-08-16T04:04:59.380Z,76.94
2022-08-16T04:07:26.500Z,76.47
2022-08-16T04:10:35.926Z,75.72
2022-08-16T04:12:54.403Z,74.55
2022-08-16T04:15:24.538Z,74.40
2022-08-16T04:18:10.083Z,74.37
2022-08-16T04:20:39.569Z,73.89
2022-08-16T04:23:09.340Z,72.71
2022-08-16T04:25:39.439Z,72.17
2022-08-16T04:28:51.596Z,71.60
2022-08-16T04:30:57.425Z,70.97
2022-08-16T04:33:27.085Z,70.77
2022-08-16T04:35:58.752Z,71.07
2022-08-16T04:38:27.769Z,70.42
2022-08-16T04:40:58.567Z,70.41
2022-08-16T04:43:27.178Z,70.67
2022-08-16T04:46:03.150Z,70.13
2022-08-16T04:48:40.804Z,70.04
2022-08-16T04:51:12.748Z,69.79
2022-08-16T04:53:49.552Z,69.95
2022-08-16T04:56:20.253Z,69.93
2022-08-16T04:58:48.982Z,69.84
2022-08-16T05:01:18.199Z,69.05
2022-08-16T05:03:59.739Z,68.77
2022-08-16T05:06:45.134Z,67.72
2022-08-16T05:09:23.133Z,66.69
2022-08-16T05:11:57.522Z,65.38
2022-08-16T05:14:46.496Z,65.23
2022-08-16T05:17:24.722Z,62.66
2022-08-16T05:19:57.943Z,59.37
2022-08-16T05:22:30.427Z,56.29
2022-08-16T05:25:02.470Z,54.69
2022-08-16T05:27:42.937Z,51.83
2022-08-16T05:30:35.177Z,50.21
2022-08-16T05:33:06.397Z,48.18
2022-08-16T05:35:36.943Z,46.58
2022-08-16T05:38:30.880Z,44.79
2022-08-16T05:41:05.295Z,43.05
2022-08-16T05:46:34.060Z,41.10
2022-08-16T05:49:18.025Z,39.17
2022-08-16T05:51:55.396Z,38.93
2022-08-16T05:54:25.079Z,38.32
2022-08-16T05:56:57.390Z,37.93
2022-08-16T05:59:27.571Z,35.05
2022-08-16T06:01:57.217Z,35.38
2022-08-16T06:04:35.196Z,35.75
2022-08-16T06:07:24.575Z,35.05
2022-08-16T06:10:02.559Z,34.16
2022-08-16T06:12:33.161Z,33.71
2022-08-16T06:15:10.223Z,32.92
2022-08-16T06:17:44.186Z,30.98
2022-08-16T06:20:35.574Z,31.01
2022-08-16T06:23:18.113Z,29.77
2022-08-16T06:26:11.392Z,30.91
2022-08-16T06:28:42.667Z,31.47
2022-08-16T06:31:24.579Z,32.30
2022-08-16T06:33:55.182Z,34.25
2022-08-16T06:36:24.353Z,39.47
2022-08-16T06:39:05.045Z,39.77
2022-08-16T06:42:00.353Z,39.08
2022-08-16T06:45:00.494Z,39.02
2022-08-16T06:47:54.365Z,42.60
2022-08-16T06:50:28.792Z,47.42
2022-08-16T06:53:19.762Z,49.62
2022-08-16T06:56:00.854Z,46.85
2022-08-16T06:58:40.745Z,44.38
2022-08-16T07:01:14.831Z,40.64
2022-08-16T07:03:55.756Z,39.48
2022-08-16T07:06:31.677Z,34.68
2022-08-16T07:09:09.730Z,26.48
2022-08-16T07:11:45.617Z,25.13
2022-08-16T07:14:26.375Z,25.49
2022-08-16T07:16:59.068Z,24.52
2022-08-16T07:20:01.616Z,24.82
2022-08-16T07:22:37.742Z,24.80
2022-08-16T07:25:11.788Z,24.04
2022-08-16T07:27:40.475Z,22.49
2022-08-16T07:30:39.112Z,22.03
2022-08-16T07:33:02.609Z,21.29
2022-08-16T07:35:30.054Z,21.87
2022-08-16T07:37:58.615Z,22.55
2022-08-16T07:40:58.049Z,23.51
2022-08-16T07:43:18.892Z,24.95
2022-08-16T07:45:53.229Z,24.44
2022-08-16T07:48:21.830Z,25.39
2022-08-16T07:50:59.178Z,25.89
2022-08-16T07:53:31.133Z,24.61
2022-08-16T07:56:04.401Z,24.21
2022-08-16T07:58:38.618Z,25.11
2022-08-16T08:01:12.521Z,27.31
2022-08-16T08:03:51.883Z,28.31
2022-08-16T08:06:28.867Z,30.14
2022-08-16T08:09:00.834Z,29.65
2022-08-16T08:11:30.645Z,29.75
2022-08-16T08:14:03.316Z,29.70
2022-08-16T08:16:36.452Z,29.03
2022-08-16T08:19:12.477Z,28.38
2022-08-16T08:21:59.978Z,29.94
2022-08-16T08:24:39.127Z,33.61
2022-08-16T08:27:13.263Z,32.12
2022-08-16T08:30:49.610Z,38.32
2022-08-16T08:33:00.020Z,41.93
2022-08-16T08:35:33.424Z,41.76
2022-08-16T08:38:03.975Z,41.34
2022-08-16T08:40:35.944Z,41.43
2022-08-16T08:43:11.751Z,40.91
2022-08-16T08:45:47.116Z,42.12
2022-08-16T08:48:34.282Z,40.61
2022-08-16T08:51:11.787Z,36.44
2022-08-16T08:53:57.259Z,34.57
2022-08-16T08:56:32.216Z,35.84
2022-08-16T08:59:22.437Z,33.86
2022-08-16T09:01:57.773Z,32.33
2022-08-16T09:04:33.122Z,33.31
2022-08-16T09:07:04.221Z,32.75
2022-08-16T09:09:34.299Z,32.83
2022-08-16T09:12:35.650Z,34.58
2022-08-16T09:15:05.475Z,35.59
2022-08-16T09:17:51.609Z,37.01
2022-08-16T09:20:25.988Z,40.77
2022-08-16T09:22:54.589Z,43.57
2022-08-16T09:25:39.356Z,42.89
2022-08-16T09:29:13.457Z,43.98
2022-08-16T09:31:08.684Z,46.99
2022-08-16T09:33:39.222Z,51.10
2022-08-16T09:36:12.127Z,51.94
2022-08-16T09:39:00.009Z,50.21
2022-08-16T09:41:28.120Z,51.08
2022-08-16T09:43:59.976Z,50.14
2022-08-16T09:46:45.064Z,49.01
2022-08-16T09:49:19.725Z,49.59
2022-08-16T09:51:54.298Z,49.49
2022-08-16T09:54:24.313Z,46.98
2022-08-16T09:57:00.350Z,45.64
2022-08-16T09:59:30.661Z,44.72
2022-08-16T10:01:58.343Z,44.34
2022-08-16T10:04:30.927Z,43.28
2022-08-16T10:07:15.114Z,40.78
2022-08-16T10:09:55.095Z,43.60
2022-08-16T10:12:45.409Z,54.82
2022-08-16T10:15:21.154Z,52.61
2022-08-16T10:18:00.780Z,53.72
2022-08-16T10:20:34.144Z,53.93
2022-08-16T10:23:07.206Z,53.81
2022-08-16T10:27:19.946Z,53.65
2022-08-16T10:28:32.325Z,53.47
2022-08-16T10:31:07.999Z,54.75
2022-08-16T10:33:40.385Z,55.55
2022-08-16T10:36:09.335Z,57.32
2022-08-16T10:38:41.978Z,57.41
2022-08-16T10:41:11.328Z,57.16
2022-08-16T10:43:43.613Z,61.07
2022-08-16T10:46:39.086Z,59.63
2022-08-16T10:49:00.999Z,57.11
2022-08-16T10:51:34.410Z,57.23
2022-08-16T10:54:29.499Z,57.80
2022-08-16T10:57:04.135Z,58.72
2022-08-16T10:59:43.937Z,59.69
2022-08-16T11:02:59.635Z,59.22
2022-08-16T11:05:11.891Z,64.12
2022-08-16T11:07:42.994Z,59.92
2022-08-16T11:10:21.165Z,61.58
2022-08-16T11:15:55.505Z,62.46
2022-08-16T11:19:04.873Z,64.10
2022-08-16T11:21:29.192Z,63.69
2022-08-16T11:23:59.560Z,62.36
2022-08-16T11:26:27.582Z,62.60
2022-08-16T11:29:13.179Z,62.33
2022-08-16T11:31:45.710Z,61.42
2022-08-16T11:34:21.149Z,62.94
2022-08-16T11:36:53.765Z,61.80
2022-08-16T11:39:28.263Z,62.07
2022-08-16T11:41:55.839Z,63.58
2022-08-16T11:44:36.584Z,64.82
2022-08-16T11:47:10.463Z,62.06
2022-08-16T11:49:37.872Z,62.28
2022-08-16T11:52:05.897Z,58.26
2022-08-16T11:54:36.626Z,59.86
2022-08-16T11:57:09.375Z,61.30
2022-08-16T11:59:39.941Z,59.78
2022-08-16T12:02:32.192Z,62.18
2022-08-16T12:04:57.155Z,64.56
2022-08-16T12:07:24.434Z,63.43
2022-08-16T12:09:53.470Z,63.37
2022-08-16T12:12:23.410Z,62.28
2022-08-16T12:15:00.007Z,61.69
2022-08-16T12:17:31.649Z,64.14
2022-08-16T12:20:01.086Z,64.76
2022-08-16T12:22:29.311Z,65.50
2022-08-16T12:24:56.851Z,63.88
2022-08-16T12:27:26.246Z,64.31
2022-08-16T12:29:58.418Z,63.06
2022-08-16T12:32:36.184Z,61.51
2022-08-16T12:35:10.068Z,60.40
2022-08-16T12:37:37.706Z,60.55
2022-08-16T12:40:23.872Z,61.94
2022-08-16T12:42:58.386Z,61.58
2022-08-16T12:45:29.780Z,61.43
2022-08-16T12:48:34.425Z,60.99
2022-08-16T12:51:13.543Z,59.60
2022-08-16T12:53:53.909Z,59.17
2022-08-16T12:56:25.159Z,59.18
2022-08-16T12:58:56.071Z,60.22
2022-08-16T13:01:29.720Z,61.53
2022-08-16T13:04:20.537Z,61.33
2022-08-16T13:06:48.799Z,62.61
2022-08-16T13:09:21.526Z,62.89
2022-08-16T13:12:07.724Z,62.79
2022-08-16T13:14:41.179Z,62.58
2022-08-16T13:17:17.003Z,63.74
2022-08-16T13:20:08.612Z,63.94
2022-08-16T13:22:50.627Z,62.62
2022-08-16T13:25:24.834Z,62.44
2022-08-16T13:28:15.230Z,61.86
2022-08-16T13:30:46.166Z,63.48
2022-08-16T13:33:18.989Z,64.45
2022-08-16T13:35:58.405Z,62.49
2022-08-16T13:38:37.283Z,62.36
2022-08-16T13:41:08.819Z,60.17
2022-08-16T13:43:38.600Z,58.28
2022-08-16T13:46:07.562Z,52.03
2022-08-16T13:48:42.686Z,51.22
2022-08-16T13:51:18.734Z,44.46
2022-08-16T13:53:54.433Z,47.21
2022-08-16T13:56:34.464Z,46.18
2022-08-16T13:59:14.207Z,46.94
2022-08-16T14:01:56.681Z,48.00
2022-08-16T14:04:33.088Z,47.08
2022-08-16T14:07:02.372Z,47.28
2022-08-16T14:09:31.942Z,44.44
2022-08-16T14:12:00.974Z,42.75
2022-08-16T14:14:32.393Z,42.93
2022-08-16T14:17:02.277Z,43.10
2022-08-16T14:19:30.503Z,41.02
2022-08-16T14:22:14.354Z,41.63
2022-08-16T14:24:47.244Z,38.53
2022-08-16T14:27:23.293Z,38.17
2022-08-16T14:29:51.993Z,41.83
2022-08-16T14:32:33.687Z,39.91
2022-08-16T14:35:07.137Z,40.58
2022-08-16T14:37:35.569Z,39.39
2022-08-16T14:40:04.067Z,37.99
2022-08-16T14:42:32.574Z,38.75
2022-08-16T14:45:05.345Z,37.86
2022-08-16T14:47:34.311Z,37.14
2022-08-16T14:50:03.199Z,35.73
2022-08-16T14:55:21.990Z,36.59
2022-08-16T14:57:49.624Z,37.32
2022-08-16T15:00:32.918Z,38.63
2022-08-16T15:03:05.976Z,37.90
2022-08-16T15:05:34.001Z,37.56
2022-08-16T15:08:02.766Z,37.16
2022-08-16T15:10:32.231Z,36.77
2022-08-16T15:13:01.350Z,35.59
2022-08-16T15:15:30.327Z,36.71
2022-08-16T15:17:57.722Z,35.89
2022-08-16T15:20:29.489Z,36.13
2022-08-16T15:22:59.120Z,35.84
2022-08-16T15:25:33.307Z,35.91
2022-08-16T15:28:05.588Z,36.20
2022-08-16T15:30:59.752Z,35.77
2022-08-16T15:33:25.809Z,34.08
2022-08-16T15:35:55.213Z,32.93
2022-08-16T15:38:57.528Z,32.11
2022-08-16T15:41:10.654Z,31.58
2022-08-16T15:43:40.601Z,31.83
2022-08-16T15:46:35.593Z,31.56
2022-08-16T15:49:14.622Z,31.76
2022-08-16T15:51:43.544Z,30.45
2022-08-16T15:54:29.106Z,30.03
2022-08-16T15:57:04.320Z,29.94
2022-08-16T15:59:49.523Z,29.33
2022-08-16T16:02:27.396Z,35.69
2022-08-16T16:05:00.699Z,41.06
2022-08-16T16:07:30.164Z,44.68
2022-08-16T16:09:59.515Z,45.62
2022-08-16T16:12:53.225Z,47.02
2022-08-16T16:15:22.768Z,45.60
2022-08-16T16:17:53.622Z,46.82
2022-08-16T16:20:27.557Z,44.88
2022-08-16T16:22:57.876Z,43.15
2022-08-16T16:25:27.324Z,40.33
2022-08-16T16:27:59.570Z,40.69
2022-08-16T16:30:33.185Z,39.29
2022-08-16T16:33:15.866Z,38.44
2022-08-16T16:35:55.174Z,37.33
2022-08-16T16:38:31.049Z,37.72
2022-08-16T16:41:00.200Z,39.33
2022-08-16T16:43:31.799Z,39.59
2022-08-16T16:46:01.659Z,39.56
2022-08-16T16:48:34.942Z,39.39
2022-08-16T16:51:09.346Z,38.90
2022-08-16T16:53:41.521Z,36.83
2022-08-16T16:56:19.543Z,36.70
2022-08-16T16:59:01.054Z,37.49
2022-08-16T17:01:56.858Z,38.18
2022-08-16T17:04:32.563Z,37.52
2022-08-16T17:07:02.973Z,38.10
2022-08-16T17:09:30.965Z,38.51
2022-08-16T17:11:59.549Z,38.77
2022-08-16T17:14:33.709Z,37.32
2022-08-16T17:17:09.001Z,36.98
2022-08-16T17:19:41.650Z,37.36
2022-08-16T17:22:16.367Z,38.90
2022-08-16T17:24:52.625Z,39.37
2022-08-16T17:27:33.104Z,40.96
2022-08-16T17:30:15.087Z,41.07
2022-08-16T17:32:54.634Z,42.71
2022-08-16T17:35:34.316Z,39.46
2022-08-16T17:38:08.915Z,40.57
2022-08-16T17:40:55.578Z,39.72
2022-08-16T17:43:36.023Z,39.88
2022-08-16T17:46:05.199Z,40.26
2022-08-16T17:48:52.439Z,40.76
2022-08-16T17:51:20.575Z,41.45
2022-08-16T17:53:50.535Z,40.74
2022-08-16T17:56:18.083Z,41.13
2022-08-16T17:58:45.323Z,40.42
2022-08-16T18:01:13.181Z,40.28
2022-08-16T18:04:06.996Z,39.84
2022-08-16T18:06:29.812Z,39.68
2022-08-16T18:09:03.716Z,41.47
2022-08-16T18:11:40.870Z,40.80
2022-08-16T18:14:09.952Z,40.03
2022-08-16T18:16:37.070Z,40.70
2022-08-16T18:19:05.704Z,40.82
2022-08-16T18:21:51.940Z,40.60
2022-08-16T18:24:19.610Z,40.35
2022-08-16T18:26:46.765Z,40.61
2022-08-16T18:29:14.276Z,40.51
2022-08-16T18:31:41.458Z,48.80
2022-08-16T18:34:08.711Z,48.17
2022-08-16T18:36:37.303Z,47.20
2022-08-16T18:39:06.104Z,45.81
2022-08-16T18:41:38.182Z,44.95
2022-08-16T18:44:26.445Z,45.06
2022-08-16T18:46:55.342Z,44.55
2022-08-16T18:49:22.591Z,44.16
2022-08-16T18:51:51.045Z,44.68
2022-08-16T18:54:18.662Z,45.36
2022-08-16T18:56:55.744Z,45.32
2022-08-16T18:59:29.575Z,44.98
2022-08-16T19:02:04.546Z,44.26
2022-08-16T19:04:57.438Z,44.67
2022-08-16T19:07:30.443Z,45.12
2022-08-16T19:10:02.320Z,45.11
2022-08-16T19:12:38.206Z,45.41
2022-08-16T19:15:15.611Z,46.53
2022-08-16T19:17:44.501Z,47.55
2022-08-16T19:20:15.764Z,45.91
2022-08-16T19:23:05.102Z,45.19
2022-08-16T19:25:47.225Z,46.54
2022-08-16T19:28:57.929Z,52.07
2022-08-16T19:31:23.753Z,56.10
2022-08-16T19:33:55.590Z,56.04
2022-08-16T19:36:33.948Z,55.98
2022-08-16T19:39:10.864Z,56.90
2022-08-16T19:41:41.077Z,57.68
2022-08-16T19:44:08.891Z,56.99
2022-08-16T19:46:37.882Z,57.15
2022-08-16T19:49:05.647Z,56.49
2022-08-16T19:51:33.018Z,56.68
2022-08-16T19:54:00.981Z,56.81
2022-08-16T19:56:28.131Z,57.07
2022-08-16T19:59:18.207Z,57.17
2022-08-16T20:01:44.416Z,56.91
2022-08-16T20:04:12.985Z,60.48
2022-08-16T20:06:41.723Z,63.10
2022-08-16T20:09:10.971Z,64.31
2022-08-16T20:11:44.525Z,65.56
2022-08-16T20:14:24.381Z,64.90
2022-08-16T20:16:57.276Z,64.85
2022-08-16T20:19:27.654Z,64.56
2022-08-16T20:22:00.041Z,64.50
2022-08-16T20:24:34.685Z,64.22
2022-08-16T20:27:06.372Z,63.87
2022-08-16T20:29:35.715Z,63.67
2022-08-16T20:32:07.241Z,63.18
2022-08-16T20:34:35.189Z,62.39
2022-08-16T20:37:02.405Z,62.34
2022-08-16T20:39:29.728Z,61.30
2022-08-16T20:41:56.894Z,60.99
2022-08-16T20:44:25.169Z,61.48
2022-08-16T20:46:53.059Z,61.60
2022-08-16T20:49:21.530Z,61.16
2022-08-16T20:51:51.795Z,60.93
2022-08-16T20:54:22.315Z,58.72
2022-08-16T20:56:49.951Z,57.93
2022-08-16T20:59:19.429Z,57.72
2022-08-16T21:01:50.567Z,56.62
2022-08-16T21:04:25.646Z,53.75
2022-08-16T21:06:53.622Z,52.39
2022-08-16T21:09:26.972Z,50.89
2022-08-16T21:11:56.139Z,49.16
2022-08-16T21:14:24.219Z,47.42
2022-08-16T21:16:51.702Z,46.53
2022-08-16T21:19:19.887Z,46.63
2022-08-16T21:21:47.453Z,47.26
2022-08-16T21:24:15.054Z,47.58
2022-08-16T21:26:49.837Z,55.37
2022-08-16T21:29:24.823Z,59.83
2022-08-16T21:31:52.520Z,58.79
2022-08-16T21:34:19.731Z,58.28
2022-08-16T21:36:46.843Z,61.21
2022-08-16T21:39:14.022Z,62.42
2022-08-16T21:41:41.190Z,62.61
2022-08-16T21:44:08.401Z,63.04
2022-08-16T21:46:35.812Z,63.11
2022-08-16T21:49:04.877Z,62.63
2022-08-16T21:51:32.129Z,63.33
2022-08-16T21:53:59.529Z,62.81
2022-08-16T21:56:26.947Z,62.82
2022-08-16T21:58:54.273Z,62.53
2022-08-16T22:01:23.438Z,62.05
2022-08-16T22:04:35.278Z,58.30
2022-08-16T22:06:40.308Z,54.02
2022-08-16T22:09:08.845Z,51.97
2022-08-16T22:11:36.763Z,49.80
2022-08-16T22:14:04.815Z,47.67
2022-08-16T22:16:37.829Z,46.49
2022-08-16T22:19:06.070Z,45.74
2022-08-16T22:21:34.350Z,45.75
2022-08-16T22:24:01.778Z,45.30
2022-08-16T22:26:32.201Z,44.07
2022-08-16T22:29:05.808Z,43.76
2022-08-16T22:31:33.423Z,42.95
2022-08-16T22:34:02.177Z,42.28
2022-08-16T22:36:31.189Z,43.11
2022-08-16T22:39:00.192Z,42.17
2022-08-16T22:41:29.305Z,41.97
2022-08-16T22:43:56.576Z,42.29
2022-08-16T22:46:24.651Z,42.82
2022-08-16T22:48:51.906Z,42.76
2022-08-16T22:51:21.334Z,42.86
2022-08-16T22:53:48.816Z,43.63
2022-08-16T22:56:16.162Z,45.71
2022-08-16T22:58:44.666Z,48.52
2022-08-16T23:01:12.939Z,50.99
2022-08-16T23:03:40.646Z,53.99
2022-08-16T23:06:11.279Z,52.06
2022-08-16T23:08:40.776Z,49.10
2022-08-16T23:11:15.427Z,46.72
2022-08-16T23:13:53.149Z,49.57
2022-08-16T23:16:33.208Z,50.49
2022-08-16T23:19:06.290Z,51.55
2022-08-16T23:21:35.054Z,53.46
2022-08-16T23:24:03.061Z,54.44
2022-08-16T23:26:36.429Z,57.24
2022-08-16T23:29:19.805Z,56.01
2022-08-16T23:31:50.568Z,53.85
2022-08-16T23:34:21.773Z,53.74
2022-08-16T23:36:49.209Z,53.18
2022-08-16T23:39:16.521Z,52.56
2022-08-16T23:41:45.725Z,51.36
2022-08-16T23:44:56.743Z,50.69
2022-08-16T23:47:00.133Z,52.07
2022-08-16T23:49:57.445Z,53.36
2022-08-16T23:52:17.623Z,55.03
2022-08-16T23:54:44.844Z,55.08
2022-08-16T23:57:14.495Z,55.22
2022-08-16T23:59:52.224Z,55.99
